createdAt,value
2022-11-05T00:00:15.436Z,13.27
2022-11-05T00:02:42.101Z,14.15
2022-11-05T00:05:09.957Z,17.60
2022-11-05T00:07:39.882Z,20.60
2022-11-05T00:10:10.135Z,19.05
2022-11-05T00:12:37.170Z,14.88
2022-11-05T00:15:05.796Z,14.18
2022-11-05T00:17:32.753Z,15.57
2022-11-05T00:19:59.544Z,17.97
2022-11-05T00:22:26.583Z,18.38
2022-11-05T00:24:53.234Z,16.75
2022-11-05T00:27:19.906Z,14.98
2022-11-05T00:29:46.567Z,22.35
2022-11-05T00:32:14.755Z,18.63
2022-11-05T00:34:41.424Z,16.52
2022-11-05T00:37:08.039Z,14.80
2022-11-05T00:39:34.681Z,17.45
2022-11-05T00:42:01.320Z,17.85
2022-11-05T00:44:27.982Z,18.17
2022-11-05T00:46:59.614Z,14.27
2022-11-05T00:49:27.944Z,18.80
2022-11-05T00:51:54.604Z,17.58
2022-11-05T00:54:21.206Z,18.33
2022-11-05T00:56:47.901Z,19.67
2022-11-05T00:59:14.584Z,17.75
2022-11-05T01:01:41.248Z,16.92
2022-11-05T01:04:07.981Z,18.10
2022-11-05T01:06:35.975Z,15.07
2022-11-05T01:09:02.684Z,14.47
2022-11-05T01:11:29.354Z,15.70
2022-11-05T01:13:55.989Z,19.65
2022-11-05T01:16:22.631Z,17.85
2022-11-05T01:18:49.236Z,14.80
2022-11-05T01:21:15.943Z,19.90
2022-11-05T01:23:44.000Z,13.98
2022-11-05T01:26:10.678Z,16.60
2022-11-05T01:28:37.388Z,47.13
2022-11-05T01:31:04.110Z,39.88
2022-11-05T01:33:30.839Z,42.73
2022-11-05T01:35:57.853Z,18.33
2022-11-05T01:38:24.570Z,17.40
2022-11-05T01:40:52.614Z,95.15
2022-11-05T01:43:20.993Z,14.30
2022-11-05T01:45:50.945Z,15.97
2022-11-05T01:48:21.535Z,11.45
2022-11-05T01:50:53.356Z,116.13
2022-11-05T01:53:25.483Z,51.72
2022-11-05T01:55:57.327Z,115.38
2022-11-05T01:58:29.000Z,72.47
2022-11-05T02:00:56.826Z,36.80
2022-11-05T02:03:24.776Z,24.23
2022-11-05T02:05:55.349Z,19.10
2022-11-05T02:08:34.554Z,31.27
2022-11-05T02:11:02.908Z,27.47
2022-11-05T02:13:29.545Z,15.52
2022-11-05T02:16:03.205Z,15.63
2022-11-05T02:18:39.257Z,16.33
2022-11-05T02:21:32.980Z,14.70
2022-11-05T02:24:20.962Z,15.17
2022-11-05T02:27:11.598Z,13.50
2022-11-05T02:30:03.035Z,15.75
2022-11-05T02:32:48.723Z,15.65
2022-11-05T02:35:22.901Z,19.25
2022-11-05T02:37:53.205Z,14.77
2022-11-05T02:40:27.249Z,13.57
2022-11-05T02:43:02.882Z,14.80
2022-11-05T02:45:40.418Z,14.60
2022-11-05T02:48:14.962Z,14.57
2022-11-05T02:50:50.444Z,16.57
2022-11-05T02:53:22.767Z,15.07
2022-11-05T02:55:53.891Z,17.10
2022-11-05T02:58:21.207Z,15.20
2022-11-05T03:00:50.202Z,18.00
2022-11-05T03:03:27.688Z,14.10
2022-11-05T03:06:19.154Z,16.55
2022-11-05T03:09:02.824Z,14.35
2022-11-05T03:11:32.580Z,13.20
2022-11-05T03:14:10.001Z,13.40
2022-11-05T03:16:40.610Z,11.40
2022-11-05T03:19:16.444Z,10.95
2022-11-05T03:21:47.031Z,12.23
2022-11-05T03:24:18.949Z,10.32
2022-11-05T03:26:50.996Z,10.93
2022-11-05T03:29:22.280Z,11.50
2022-11-05T03:31:52.115Z,12.35
2022-11-05T03:34:24.844Z,10.80
2022-11-05T03:36:55.525Z,13.38
2022-11-05T03:39:28.514Z,13.35
2022-11-05T03:41:56.938Z,14.97
2022-11-05T03:44:28.689Z,13.13
2022-11-05T03:47:02.167Z,13.35
2022-11-05T03:49:36.437Z,11.85
2022-11-05T03:52:07.336Z,10.95
2022-11-05T03:54:34.640Z,13.80
2022-11-05T03:57:06.703Z,12.18
2022-11-05T03:59:40.463Z,11.00
2022-11-05T04:02:07.549Z,16.95
2022-11-05T04:04:35.866Z,16.23
2022-11-05T04:07:02.492Z,14.10
2022-11-05T04:09:34.131Z,16.33
2022-11-05T04:12:00.794Z,11.88
2022-11-05T04:14:27.426Z,13.60
2022-11-05T04:16:54.092Z,15.27
2022-11-05T04:19:26.003Z,13.23
2022-11-05T04:21:54.210Z,13.65
2022-11-05T04:24:20.861Z,15.80
2022-11-05T04:26:47.539Z,10.95
2022-11-05T04:29:14.161Z,10.75
2022-11-05T04:31:40.830Z,10.23
2022-11-05T04:34:07.521Z,12.27
2022-11-05T04:36:34.160Z,10.85
2022-11-05T04:39:02.244Z,10.65
2022-11-05T04:41:28.948Z,14.68
2022-11-05T04:43:55.578Z,11.20
2022-11-05T04:46:22.217Z,12.82
2022-11-05T04:48:48.886Z,12.02
2022-11-05T04:51:15.513Z,13.98
2022-11-05T04:53:42.176Z,13.80
2022-11-05T04:56:11.078Z,13.17
2022-11-05T04:58:41.469Z,11.45
2022-11-05T05:01:12.583Z,15.85
2022-11-05T05:03:39.331Z,15.15
2022-11-05T05:06:06.413Z,14.80
2022-11-05T05:08:33.294Z,14.93
2022-11-05T05:11:02.039Z,12.18
2022-11-05T05:13:30.097Z,14.05
2022-11-05T05:15:56.777Z,13.52
2022-11-05T05:18:23.376Z,12.18
2022-11-05T05:20:50.018Z,10.93
2022-11-05T05:23:16.715Z,14.15
2022-11-05T05:25:43.362Z,13.55
2022-11-05T05:28:10.043Z,13.98
2022-11-05T05:30:38.035Z,14.77
2022-11-05T05:33:04.800Z,12.73
2022-11-05T05:35:31.496Z,16.02
2022-11-05T05:37:58.185Z,13.40
2022-11-05T05:40:24.960Z,19.15
2022-11-05T05:42:53.848Z,15.52
2022-11-05T05:45:20.793Z,21.93
2022-11-05T05:47:48.765Z,19.08
2022-11-05T05:50:15.518Z,19.80
2022-11-05T05:52:42.157Z,17.48
2022-11-05T05:55:09.613Z,17.30
2022-11-05T05:57:36.348Z,20.30
2022-11-05T06:00:07.248Z,24.10
2022-11-05T06:02:33.932Z,23.65
2022-11-05T06:05:02.043Z,23.75
2022-11-05T06:07:31.859Z,27.52
2022-11-05T06:10:02.768Z,24.20
2022-11-05T06:12:29.666Z,25.92
2022-11-05T06:14:56.310Z,25.83
2022-11-05T06:17:22.932Z,21.42
2022-11-05T06:19:49.566Z,25.67
2022-11-05T06:22:17.514Z,24.07
2022-11-05T06:24:44.176Z,26.02
2022-11-05T06:27:10.781Z,24.02
2022-11-05T06:29:37.389Z,28.55
2022-11-05T06:32:04.305Z,23.17
2022-11-05T06:34:30.973Z,22.93
2022-11-05T06:36:57.630Z,24.85
2022-11-05T06:39:25.717Z,24.13
2022-11-05T06:42:19.456Z,25.85
2022-11-05T06:44:38.996Z,31.67
2022-11-05T06:47:05.655Z,26.03
2022-11-05T06:49:32.321Z,28.75
2022-11-05T06:51:58.998Z,27.27
2022-11-05T06:54:27.016Z,26.05
2022-11-05T06:56:54.881Z,26.52
2022-11-05T06:59:21.750Z,23.20
2022-11-05T07:01:48.471Z,26.20
2022-11-05T07:04:15.317Z,24.45
2022-11-05T07:06:41.961Z,26.83
2022-11-05T07:09:08.660Z,31.73
2022-11-05T07:11:36.643Z,30.10
2022-11-05T07:14:04.795Z,28.38
2022-11-05T07:16:31.464Z,25.85
2022-11-05T07:18:58.148Z,29.15
2022-11-05T07:21:33.105Z,26.85
2022-11-05T07:23:59.930Z,26.47
2022-11-05T07:26:30.496Z,25.30
2022-11-05T07:29:01.532Z,25.20
2022-11-05T07:31:28.313Z,25.73
2022-11-05T07:33:54.977Z,27.85
2022-11-05T07:36:21.664Z,27.23
2022-11-05T07:38:48.291Z,30.70
2022-11-05T07:41:14.944Z,31.60
2022-11-05T07:43:41.578Z,34.30
2022-11-05T07:46:13.662Z,35.17
2022-11-05T07:48:41.256Z,35.97
2022-11-05T07:51:07.930Z,36.80
2022-11-05T07:53:34.580Z,28.30
2022-11-05T07:56:01.284Z,30.80
2022-11-05T07:58:27.944Z,26.02
2022-11-05T08:00:54.749Z,39.13
2022-11-05T08:03:32.891Z,38.03
2022-11-05T08:05:59.701Z,33.70
2022-11-05T08:08:26.486Z,28.20
2022-11-05T08:10:53.092Z,30.10
2022-11-05T08:13:26.119Z,32.17
2022-11-05T08:15:52.801Z,28.45
2022-11-05T08:18:19.448Z,24.02
2022-11-05T08:20:47.665Z,26.67
2022-11-05T08:23:14.798Z,26.77
2022-11-05T08:25:41.897Z,24.23
2022-11-05T08:28:11.159Z,25.25
2022-11-05T08:30:38.167Z,27.08
2022-11-05T08:33:06.785Z,27.23
2022-11-05T08:35:37.678Z,25.42
2022-11-05T08:38:07.507Z,23.77
2022-11-05T08:40:35.882Z,23.20
2022-11-05T08:43:04.823Z,73.43
2022-11-05T08:45:32.144Z,34.65
2022-11-05T08:47:59.522Z,28.33
2022-11-05T08:50:26.250Z,23.40
2022-11-05T08:52:52.886Z,22.35
2022-11-05T08:55:21.060Z,22.73
2022-11-05T08:57:47.707Z,25.08
2022-11-05T09:00:15.409Z,24.00
2022-11-05T09:02:42.303Z,22.57
2022-11-05T09:05:09.305Z,26.08
2022-11-05T09:07:35.901Z,28.00
2022-11-05T09:10:02.613Z,24.73
2022-11-05T09:12:30.692Z,29.52
2022-11-05T09:14:57.330Z,27.70
2022-11-05T09:17:24.025Z,26.95
2022-11-05T09:19:50.809Z,27.65
2022-11-05T09:22:17.482Z,23.55
2022-11-05T09:24:44.139Z,22.35
2022-11-05T09:27:11.655Z,30.33
2022-11-05T09:29:40.130Z,23.40
2022-11-05T09:32:07.527Z,22.55
2022-11-05T09:34:34.599Z,23.33
2022-11-05T09:37:02.021Z,21.92
2022-11-05T09:39:28.727Z,19.97
2022-11-05T09:42:02.094Z,20.25
2022-11-05T09:44:37.300Z,18.08
2022-11-05T09:47:08.643Z,18.45
2022-11-05T09:49:38.930Z,19.00
2022-11-05T09:52:09.956Z,16.87
2022-11-05T09:54:37.582Z,20.00
2022-11-05T09:57:11.573Z,19.23
2022-11-05T09:59:44.425Z,16.30
2022-11-05T10:02:17.824Z,19.65
2022-11-05T10:04:47.842Z,20.07
2022-11-05T10:07:20.603Z,18.42
2022-11-05T10:09:51.240Z,17.58
2022-11-05T10:12:24.251Z,20.88
2022-11-05T10:14:59.229Z,19.30
2022-11-05T10:17:28.719Z,19.20
2022-11-05T10:20:09.564Z,21.27
2022-11-05T10:22:36.769Z,19.58
2022-11-05T10:25:16.951Z,19.38
2022-11-05T10:27:47.832Z,25.27
2022-11-05T10:30:14.773Z,18.43
2022-11-05T10:32:44.565Z,20.38
2022-11-05T10:35:14.485Z,16.38
2022-11-05T10:37:41.269Z,20.73
2022-11-05T10:40:16.772Z,17.67
2022-11-05T10:42:55.692Z,19.40
2022-11-05T10:45:30.647Z,19.58
2022-11-05T10:48:10.250Z,21.63
2022-11-05T10:50:37.051Z,18.50
2022-11-05T10:53:11.682Z,18.92
2022-11-05T10:55:42.378Z,20.37
2022-11-05T10:58:18.020Z,18.70
2022-11-05T11:00:59.609Z,18.20
2022-11-05T11:03:39.812Z,17.45
2022-11-05T11:06:17.133Z,15.38
2022-11-05T11:08:46.396Z,18.10
2022-11-05T11:11:26.274Z,18.48
2022-11-05T11:14:00.779Z,16.90
2022-11-05T11:16:29.026Z,17.27
2022-11-05T11:18:58.283Z,17.00
2022-11-05T11:21:25.082Z,15.63
2022-11-05T11:23:56.309Z,15.55
2022-11-05T11:26:24.332Z,18.77
2022-11-05T11:28:57.060Z,15.45
2022-11-05T11:31:26.642Z,14.73
2022-11-05T11:34:00.112Z,17.87
2022-11-05T11:36:33.238Z,14.45
2022-11-05T11:39:01.545Z,13.68
2022-11-05T11:41:33.336Z,15.45
2022-11-05T11:44:04.556Z,12.40
2022-11-05T11:46:33.909Z,12.30
2022-11-05T11:49:02.762Z,13.35
2022-11-05T11:51:32.698Z,11.98
2022-11-05T11:54:00.641Z,11.32
2022-11-05T11:56:28.227Z,10.50
2022-11-05T11:58:56.049Z,10.17
2022-11-05T12:01:41.855Z,12.50
2022-11-05T12:04:21.285Z,11.88
2022-11-05T12:06:54.669Z,12.88
2022-11-05T12:09:31.185Z,11.75
2022-11-05T12:12:02.979Z,12.20
2022-11-05T12:14:36.882Z,14.05
2022-11-05T12:17:25.816Z,9.30
2022-11-05T12:20:36.148Z,13.27
2022-11-05T12:23:25.901Z,13.77
2022-11-05T12:26:01.052Z,9.93
2022-11-05T12:29:12.295Z,11.27
2022-11-05T12:31:38.940Z,13.93
2022-11-05T12:34:22.587Z,10.88
2022-11-05T12:37:04.348Z,11.68
2022-11-05T12:39:46.340Z,12.63
2022-11-05T12:42:27.922Z,15.27
2022-11-05T12:45:01.299Z,11.40
2022-11-05T12:47:46.870Z,11.25
2022-11-05T12:50:27.165Z,14.52
2022-11-05T12:53:15.731Z,11.80
2022-11-05T12:55:48.530Z,13.80
2022-11-05T12:58:20.209Z,11.80
2022-11-05T13:00:51.270Z,13.05
2022-11-05T13:03:27.272Z,11.18
2022-11-05T13:06:04.515Z,12.83
2022-11-05T13:08:42.927Z,11.02
2022-11-05T13:11:17.443Z,10.82
2022-11-05T13:13:48.897Z,10.15
2022-11-05T13:16:23.235Z,8.60
2022-11-05T13:18:54.153Z,10.50
2022-11-05T13:21:23.464Z,10.57
2022-11-05T13:23:55.465Z,11.50
2022-11-05T13:26:27.131Z,10.90
2022-11-05T13:28:57.980Z,9.48
2022-11-05T13:31:30.048Z,8.37
2022-11-05T13:33:57.513Z,7.80
2022-11-05T13:36:28.575Z,7.43
2022-11-05T13:39:00.427Z,7.05
2022-11-05T13:41:36.393Z,7.22
2022-11-05T13:44:20.051Z,7.97
2022-11-05T13:47:11.873Z,7.65
2022-11-05T13:50:06.058Z,6.78
2022-11-05T13:52:58.397Z,9.68
2022-11-05T13:55:41.217Z,6.13
2022-11-05T13:58:41.561Z,6.83
2022-11-05T14:01:20.215Z,7.40
2022-11-05T14:03:48.489Z,8.13
2022-11-05T14:06:23.587Z,9.05
2022-11-05T14:08:50.367Z,9.07
2022-11-05T14:11:25.249Z,8.30
2022-11-05T14:13:56.492Z,7.45
2022-11-05T14:16:24.633Z,8.93
2022-11-05T14:18:55.154Z,8.57
2022-11-05T14:21:47.751Z,6.70
2022-11-05T14:24:42.091Z,5.83
2022-11-05T14:27:46.344Z,3.20
2022-11-05T14:30:42.041Z,4.93
2022-11-05T14:33:29.262Z,3.80
2022-11-05T14:36:29.882Z,4.90
2022-11-05T14:39:04.377Z,10.30
2022-11-05T14:41:31.374Z,8.88
2022-11-05T14:44:05.130Z,8.00
2022-11-05T14:46:41.357Z,5.07
2022-11-05T14:49:17.749Z,4.32
2022-11-05T14:51:47.834Z,7.00
2022-11-05T14:54:21.052Z,5.70
2022-11-05T14:56:55.874Z,5.28
2022-11-05T14:59:50.856Z,5.55
2022-11-05T15:02:21.771Z,9.15
2022-11-05T15:04:48.704Z,9.73
2022-11-05T15:07:36.897Z,7.38
2022-11-05T15:10:10.974Z,9.68
2022-11-05T15:12:43.497Z,9.23
2022-11-05T15:15:22.341Z,9.43
2022-11-05T15:17:59.342Z,8.90
2022-11-05T15:20:39.646Z,9.15
2022-11-05T15:23:11.437Z,9.63
2022-11-05T15:25:50.394Z,10.27
2022-11-05T15:28:27.179Z,13.18
2022-11-05T15:31:00.804Z,10.90
2022-11-05T15:33:27.821Z,8.90
2022-11-05T15:35:55.482Z,8.43
2022-11-05T15:38:27.900Z,16.90
2022-11-05T15:40:59.310Z,17.65
2022-11-05T15:43:26.024Z,15.63
2022-11-05T15:46:06.494Z,16.42
2022-11-05T15:48:33.991Z,17.35
2022-11-05T15:51:01.165Z,18.23
2022-11-05T15:53:56.000Z,17.45
2022-11-05T15:56:27.004Z,18.83
2022-11-05T15:58:55.831Z,15.90
2022-11-05T16:01:26.977Z,20.55
2022-11-05T16:03:56.634Z,20.05
2022-11-05T16:06:28.601Z,20.33
2022-11-05T16:08:55.452Z,18.37
2022-11-05T16:14:19.765Z,13.45
2022-11-05T16:16:47.897Z,17.50
2022-11-05T16:19:40.495Z,17.85
2022-11-05T16:22:07.959Z,18.20
2022-11-05T16:24:41.100Z,19.33
2022-11-05T16:27:19.157Z,22.63
2022-11-05T16:29:52.652Z,24.83
2022-11-05T16:32:26.888Z,19.17
2022-11-05T16:34:59.109Z,19.73
2022-11-05T16:37:27.069Z,23.00
2022-11-05T16:39:57.381Z,23.15
2022-11-05T16:42:37.200Z,23.90
2022-11-05T16:45:04.771Z,25.55
2022-11-05T16:47:32.809Z,30.03
2022-11-05T16:49:59.469Z,23.42
2022-11-05T16:52:26.248Z,21.30
2022-11-05T16:54:52.881Z,21.58
2022-11-05T16:57:24.796Z,17.65
2022-11-05T16:59:51.447Z,21.10
2022-11-05T17:02:18.327Z,20.42
2022-11-05T17:04:46.600Z,21.33
2022-11-05T17:07:13.286Z,21.55
2022-11-05T17:09:39.922Z,23.33
2022-11-05T17:12:06.865Z,21.50
2022-11-05T17:14:33.565Z,21.95
2022-11-05T17:17:00.857Z,21.15
2022-11-05T17:19:27.553Z,24.83
2022-11-05T17:21:55.639Z,25.73
2022-11-05T17:24:22.426Z,24.33
2022-11-05T17:26:49.274Z,23.45
2022-11-05T17:29:16.165Z,19.45
2022-11-05T17:31:42.821Z,20.80
2022-11-05T17:34:10.562Z,16.27
2022-11-05T17:36:37.197Z,17.33
2022-11-05T17:39:05.345Z,19.15
2022-11-05T17:41:32.030Z,23.15
2022-11-05T17:43:58.910Z,28.38
2022-11-05T17:46:25.599Z,27.70
2022-11-05T17:48:52.247Z,24.20
2022-11-05T17:51:19.978Z,26.02
2022-11-05T17:53:47.466Z,25.77
2022-11-05T17:56:28.926Z,28.55
2022-11-05T17:59:00.031Z,30.48
2022-11-05T18:01:28.988Z,32.10
2022-11-05T18:03:55.765Z,33.75
2022-11-05T18:06:22.439Z,41.25
2022-11-05T18:08:49.184Z,37.88
2022-11-05T18:11:17.399Z,40.60
2022-11-05T18:13:44.152Z,34.27
2022-11-05T18:16:15.587Z,31.20
2022-11-05T18:18:43.177Z,24.10
2022-11-05T18:21:09.933Z,23.63
2022-11-05T18:23:36.641Z,22.58
2022-11-05T18:26:08.697Z,18.33
2022-11-05T18:28:36.880Z,16.73
2022-11-05T18:31:03.891Z,18.40
2022-11-05T18:33:30.647Z,17.27
2022-11-05T18:35:57.361Z,17.40
2022-11-05T18:38:24.000Z,14.83
2022-11-05T18:40:50.696Z,16.52
2022-11-05T18:43:17.387Z,16.63
2022-11-05T18:45:45.436Z,19.35
2022-11-05T18:48:12.354Z,19.40
2022-11-05T18:50:39.976Z,16.63
2022-11-05T18:53:06.659Z,20.83
2022-11-05T18:55:33.302Z,18.65
2022-11-05T18:57:59.969Z,19.40
2022-11-05T19:00:26.631Z,28.40
2022-11-05T19:02:55.076Z,30.13
2022-11-05T19:05:29.057Z,26.25
2022-11-05T19:07:56.411Z,29.00
2022-11-05T19:10:23.259Z,26.52
2022-11-05T19:12:49.928Z,24.30
2022-11-05T19:15:16.638Z,23.60
2022-11-05T19:17:43.477Z,25.15
2022-11-05T19:20:12.056Z,27.58
2022-11-05T19:22:38.735Z,22.50
2022-11-05T19:25:06.576Z,23.20
2022-11-05T19:27:35.205Z,20.57
2022-11-05T19:30:01.914Z,24.08
2022-11-05T19:32:28.610Z,20.75
2022-11-05T19:34:55.297Z,25.17
2022-11-05T19:37:23.362Z,20.15
2022-11-05T19:39:50.022Z,23.07
2022-11-05T19:42:16.944Z,18.25
2022-11-05T19:44:43.618Z,24.05
2022-11-05T19:47:10.505Z,24.75
2022-11-05T19:49:37.157Z,26.30
2022-11-05T19:52:03.984Z,27.33
2022-11-05T19:54:32.012Z,28.20
2022-11-05T19:56:58.784Z,38.13
2022-11-05T19:59:25.514Z,35.72
2022-11-05T20:01:52.314Z,40.60
2022-11-05T20:04:19.071Z,41.30
2022-11-05T20:06:45.786Z,40.40
2022-11-05T20:09:23.151Z,32.75
2022-11-05T20:11:52.531Z,30.60
2022-11-05T20:14:19.161Z,30.98
2022-11-05T20:16:46.497Z,30.70
2022-11-05T20:19:15.686Z,32.67
2022-11-05T20:21:42.565Z,32.10
2022-11-05T20:24:10.877Z,27.15
2022-11-05T20:26:38.043Z,36.72
2022-11-05T20:29:06.392Z,36.57
2022-11-05T20:31:33.506Z,31.23
2022-11-05T20:34:00.187Z,27.85
2022-11-05T20:36:27.005Z,25.63
2022-11-05T20:38:55.410Z,20.48
2022-11-05T20:41:22.764Z,17.50
2022-11-05T20:43:49.713Z,16.55
2022-11-05T20:46:19.797Z,13.88
2022-11-05T20:48:46.487Z,16.10
2022-11-05T20:51:15.369Z,20.10
2022-11-05T20:53:42.366Z,21.57
2022-11-05T20:56:15.897Z,21.38
2022-11-05T20:58:42.578Z,25.13
2022-11-05T21:01:12.254Z,27.45
2022-11-05T21:03:40.326Z,28.48
2022-11-05T21:06:07.162Z,33.77
2022-11-05T21:08:34.290Z,33.75
2022-11-05T21:11:01.591Z,28.90
2022-11-05T21:13:28.532Z,29.05
2022-11-05T21:15:57.464Z,28.73
2022-11-05T21:18:26.356Z,25.37
2022-11-05T21:20:54.700Z,21.98
2022-11-05T21:23:21.726Z,19.98
2022-11-05T21:25:48.602Z,20.88
2022-11-05T21:28:16.137Z,18.17
2022-11-05T21:30:44.340Z,18.17
2022-11-05T21:33:11.553Z,18.77
2022-11-05T21:35:39.381Z,17.75
2022-11-05T21:38:07.700Z,15.13
2022-11-05T21:40:34.560Z,18.02
2022-11-05T21:43:01.309Z,21.10
2022-11-05T21:45:28.231Z,21.13
2022-11-05T21:47:55.253Z,19.13
2022-11-05T21:50:22.373Z,17.98
2022-11-05T21:52:49.045Z,20.02
2022-11-05T21:55:17.162Z,23.40
2022-11-05T21:57:43.851Z,18.38
2022-11-05T22:00:11.905Z,17.23
2022-11-05T22:02:38.623Z,16.23
2022-11-05T22:05:06.795Z,17.08
2022-11-05T22:07:34.977Z,16.87
2022-11-05T22:10:03.057Z,17.88
2022-11-05T22:12:31.130Z,17.58
2022-11-05T22:14:58.207Z,18.45
2022-11-05T22:17:24.881Z,15.93
2022-11-05T22:19:51.855Z,17.70
2022-11-05T22:22:18.553Z,19.50
2022-11-05T22:24:45.634Z,17.17
2022-11-05T22:27:14.087Z,17.27
2022-11-05T22:29:42.361Z,24.85
2022-11-05T22:32:10.346Z,22.67
2022-11-05T22:34:37.000Z,21.58
2022-11-05T22:37:03.777Z,19.15
2022-11-05T22:39:30.518Z,17.55
2022-11-05T22:41:58.050Z,18.15
2022-11-05T22:44:26.424Z,19.40
2022-11-05T22:46:54.780Z,16.95
2022-11-05T22:49:21.455Z,18.10
2022-11-05T22:51:48.083Z,20.30
2022-11-05T22:54:14.834Z,20.63
2022-11-05T22:56:42.609Z,21.13
2022-11-05T22:59:13.782Z,23.17
2022-11-05T23:01:41.206Z,23.90
2022-11-05T23:04:10.086Z,18.55
2022-11-05T23:06:36.756Z,17.73
2022-11-05T23:09:05.843Z,22.70
2022-11-05T23:11:32.509Z,18.92
2022-11-05T23:13:59.198Z,21.20
2022-11-05T23:16:25.888Z,26.77
2022-11-05T23:18:52.608Z,19.05
2022-11-05T23:21:23.044Z,22.17
2022-11-05T23:23:50.081Z,26.92
2022-11-05T23:26:16.768Z,25.17
2022-11-05T23:28:43.444Z,23.65
2022-11-05T23:31:10.109Z,25.77
2022-11-05T23:33:37.386Z,26.60
2022-11-05T23:36:04.318Z,30.58
2022-11-05T23:38:32.330Z,29.98
2022-11-05T23:41:00.830Z,26.92
2022-11-05T23:43:27.501Z,33.17
2022-11-05T23:45:54.213Z,29.77
2022-11-05T23:48:25.255Z,31.38
2022-11-05T23:50:58.474Z,34.72
2022-11-05T23:53:25.490Z,34.22
2022-11-05T23:55:57.813Z,34.70
2022-11-05T23:58:24.500Z,34.07
